KRNT - Renton
Updated: Fri, 22-Jun-2018 5:53am PDT

 Wind from S
Wind: S 7 mph , 11 km/h
Temperature: 61°F , 16°C
Dew Point: 52°F , 11°C
Humidity: 72%
Barometer: 30.17 inHg , 1021.7 hPa
Visibility: 10 miles , 16 km
Cloud details: 1800 ft
2018/06/22 12:53 KRNT 221253Z AUTO 19006KT 10SM OVC018 16/11 A3017 RMK AO2 SLP220 T01560111
KBFI - Seattle-Boeing
Updated: Fri, 22-Jun-2018 5:53am PDT

 Wind from S
Wind: S 3 mph , 6 km/h
Temperature: 57°F , 14°C
Dew Point: 52°F , 11°C
Humidity: 82%
Barometer: 30.17 inHg , 1021.7 hPa
Visibility: 10 miles , 16 km
Cloud details: 1300 ft
2300 ft
2018/06/22 12:53 KBFI 221253Z 17003KT 10SM FEW013 OVC023 14/11 A3017 RMK AO2 SLP215 T01440106 $
 
KSEA - Seattle
Updated: Fri, 22-Jun-2018 5:53am PDT

 Wind from SSW
Wind: SSW 9 mph , 15 km/h
Temperature: 57°F , 14°C
Dew Point: 52°F , 11°C
Humidity: 82%
Barometer: 30.17 inHg , 1021.7 hPa
Visibility: 10 miles , 16 km
Cloud details: 1200 ft
1800 ft
2018/06/22 12:53 KSEA 221253Z 21008KT 10SM FEW012 OVC018 14/11 A3017 RMK AO2 SLP223 T01440106
KSMP - Stampede Pass
Updated: Fri, 22-Jun-2018 5:56am PDT
Fog, Overcast
Fog, Overcast
 Wind from varies
Wind: varies 5 mph , 7 km/h
Temperature: 48°F , 9°C
Wind Chill: 46°F , 8°C
Dew Point: 46°F , 8°C
Humidity: 94%
Barometer: 30.15 inHg , 1021 hPa
Visibility: less than 1/4 mile , 2 km
Cloud details: 100 ft
2018/06/22 12:56 KSMP 221256Z AUTO VRB04KT M1/4SM FG VV001 09/08 A3015 RMK AO2 SLP203 T00890083